createdAt,value
2022-08-27T00:02:05.135Z,101133.25
2022-08-27T00:04:52.239Z,101126.28
2022-08-27T00:07:40.053Z,101122.06
2022-08-27T00:10:27.693Z,101130.03
2022-08-27T00:13:16.190Z,101127.59
2022-08-27T00:16:07.833Z,101119.06
2022-08-27T00:18:55.662Z,101115.59
2022-08-27T00:21:43.009Z,101116.09
2022-08-27T00:24:30.087Z,101119.81
2022-08-27T00:27:17.358Z,101113.25
2022-08-27T00:30:12.969Z,101126.25
2022-08-27T00:33:00.034Z,101115.75
2022-08-27T00:35:47.061Z,101121.47
2022-08-27T00:38:34.868Z,101117.06
2022-08-27T00:41:22.001Z,101118.41
2022-08-27T00:44:13.463Z,101126.06
2022-08-27T00:47:04.299Z,101134.88
2022-08-27T00:49:58.575Z,101137.69
2022-08-27T00:52:55.508Z,101134.13
2022-08-27T00:55:50.859Z,101141.06
2022-08-27T00:58:44.845Z,101141.09
2022-08-27T01:01:35.768Z,101141.13
2022-08-27T01:04:23.289Z,101134.66
2022-08-27T01:07:11.528Z,101130.59
2022-08-27T01:10:01.325Z,101134.72
2022-08-27T01:12:53.411Z,101138.88
2022-08-27T01:15:42.191Z,101135.56
2022-08-27T01:18:32.810Z,101134.91
2022-08-27T01:21:41.238Z,101133.16
2022-08-27T01:24:34.413Z,101141.34
2022-08-27T01:27:25.518Z,101143.41
2022-08-27T01:30:19.751Z,101151.91
2022-08-27T01:33:17.288Z,101148.75
2022-08-27T01:36:05.820Z,101141.84
2022-08-27T01:38:52.930Z,101144.78
2022-08-27T01:41:40.593Z,101143.06
2022-08-27T01:44:27.879Z,101139.13
2022-08-27T01:47:16.674Z,101149.59
2022-08-27T01:50:11.460Z,101154.44
2022-08-27T01:53:06.289Z,101160.91
2022-08-27T01:55:54.503Z,101157.69
2022-08-27T01:58:41.542Z,101157.31
2022-08-27T02:01:28.623Z,101155.34
2022-08-27T02:04:15.666Z,101149.00
2022-08-27T02:07:02.923Z,101147.44
2022-08-27T02:09:50.373Z,101145.06
2022-08-27T02:12:37.577Z,101142.94
2022-08-27T02:15:25.557Z,101149.41
2022-08-27T02:18:13.955Z,101140.22
2022-08-27T02:21:00.933Z,101146.28
2022-08-27T02:23:47.978Z,101151.53
2022-08-27T02:26:34.938Z,101154.69
2022-08-27T02:29:23.079Z,101155.88
2022-08-27T02:32:22.744Z,101153.91
2022-08-27T02:35:21.857Z,101157.06
2022-08-27T02:38:09.106Z,101157.88
2022-08-27T02:40:56.193Z,101144.22
2022-08-27T02:43:44.123Z,101151.44
2022-08-27T02:46:33.076Z,101153.09
2022-08-27T02:49:20.087Z,101156.00
2022-08-27T02:52:07.170Z,101153.13
2022-08-27T02:54:54.149Z,101155.63
2022-08-27T02:57:41.193Z,101150.72
2022-08-27T03:00:29.075Z,101148.31
2022-08-27T03:03:16.532Z,101156.75
2022-08-27T03:06:03.619Z,101154.31
2022-08-27T03:08:52.700Z,101152.72
2022-08-27T03:11:41.566Z,101150.41
2022-08-27T03:14:28.962Z,101151.19
2022-08-27T03:17:34.757Z,101147.94
2022-08-27T03:20:22.837Z,101147.44
2022-08-27T03:23:10.743Z,101149.50
2022-08-27T03:26:00.328Z,101156.41
2022-08-27T03:28:48.158Z,101164.53
2022-08-27T03:31:35.190Z,101174.28
2022-08-27T03:34:22.563Z,101159.66
2022-08-27T03:37:09.534Z,101150.78
2022-08-27T03:39:56.753Z,101156.47
2022-08-27T03:42:43.829Z,101154.91
2022-08-27T03:45:30.885Z,101155.72
2022-08-27T03:48:38.320Z,101147.16
2022-08-27T03:51:26.389Z,101150.41
2022-08-27T03:54:13.497Z,101155.63
2022-08-27T03:57:00.481Z,101153.31
2022-08-27T03:59:47.546Z,101141.16
2022-08-27T04:02:34.791Z,101153.28
2022-08-27T04:05:22.831Z,101150.50
2022-08-27T04:08:10.649Z,101143.59
2022-08-27T04:10:57.813Z,101151.84
2022-08-27T04:13:44.883Z,101159.03
2022-08-27T04:16:33.868Z,101162.25
2022-08-27T04:19:25.067Z,101156.59
2022-08-27T04:22:15.024Z,101147.78
2022-08-27T04:25:02.643Z,101159.81
2022-08-27T04:27:49.843Z,101157.06
2022-08-27T04:30:45.697Z,101148.25
2022-08-27T04:33:32.722Z,101152.63
2022-08-27T04:36:20.850Z,101150.22
2022-08-27T04:39:07.991Z,101155.00
2022-08-27T04:41:57.144Z,101157.41
2022-08-27T04:44:45.037Z,101154.28
2022-08-27T04:47:32.311Z,101169.59
2022-08-27T04:50:19.795Z,101163.22
2022-08-27T04:53:06.825Z,101176.91
2022-08-27T04:55:56.416Z,101176.13
2022-08-27T04:58:44.391Z,101170.13
2022-08-27T05:01:31.655Z,101168.91
2022-08-27T05:04:19.181Z,101162.00
2022-08-27T05:07:07.384Z,101174.84
2022-08-27T05:09:54.560Z,101157.50
2022-08-27T05:12:41.627Z,101162.34
2022-08-27T05:15:28.898Z,101170.84
2022-08-27T05:18:16.891Z,101177.66
2022-08-27T05:21:05.754Z,101167.25
2022-08-27T05:23:55.646Z,101171.69
2022-08-27T05:26:42.765Z,101177.31
2022-08-27T05:29:31.723Z,101171.25
2022-08-27T05:32:18.720Z,101174.84
2022-08-27T05:35:06.614Z,101176.03
2022-08-27T05:37:54.600Z,101172.28
2022-08-27T05:40:42.342Z,101171.91
2022-08-27T05:43:29.323Z,101159.34
2022-08-27T05:46:19.134Z,101158.94
2022-08-27T05:49:07.058Z,101163.03
2022-08-27T05:51:54.034Z,101162.94
2022-08-27T05:54:41.091Z,101164.19
2022-08-27T05:57:28.130Z,101158.88
2022-08-27T06:00:33.840Z,101157.19
2022-08-27T06:03:20.816Z,101178.25
2022-08-27T06:06:10.757Z,101173.34
2022-08-27T06:08:57.981Z,101174.97
2022-08-27T06:11:45.750Z,101185.06
2022-08-27T06:14:32.887Z,101184.69
2022-08-27T06:17:19.848Z,101176.91
2022-08-27T06:20:07.311Z,101178.63
2022-08-27T06:22:56.802Z,101189.28
2022-08-27T06:25:45.018Z,101197.63
2022-08-27T06:28:34.467Z,101200.03
2022-08-27T06:31:24.865Z,101191.91
2022-08-27T06:34:12.229Z,101199.63
2022-08-27T06:37:01.718Z,101189.56
2022-08-27T06:39:48.754Z,101195.19
2022-08-27T06:42:35.736Z,101187.88
2022-08-27T06:45:24.449Z,101197.94
2022-08-27T06:48:11.592Z,101199.16
2022-08-27T06:50:59.358Z,101203.16
2022-08-27T06:53:47.866Z,101205.59
2022-08-27T06:56:35.694Z,101189.38
2022-08-27T06:59:22.750Z,101210.78
2022-08-27T07:02:09.997Z,101204.72
2022-08-27T07:04:57.082Z,101205.59
2022-08-27T07:07:48.623Z,101214.50
2022-08-27T07:10:37.337Z,101216.91
2022-08-27T07:13:24.628Z,101215.34
2022-08-27T07:16:15.606Z,101216.50
2022-08-27T07:19:05.472Z,101230.72
2022-08-27T07:21:52.619Z,101222.19
2022-08-27T07:24:40.084Z,101225.81
2022-08-27T07:27:27.144Z,101233.09
2022-08-27T07:30:16.059Z,101234.34
2022-08-27T07:33:04.734Z,101234.72
2022-08-27T07:35:52.125Z,101238.38
2022-08-27T07:38:39.160Z,101239.97
2022-08-27T07:41:30.307Z,101248.44
2022-08-27T07:44:28.001Z,101247.69
2022-08-27T07:47:18.658Z,101252.50
2022-08-27T07:50:06.349Z,101246.06
2022-08-27T07:52:53.429Z,101258.97
2022-08-27T07:55:40.758Z,101247.69
2022-08-27T07:58:27.842Z,101244.41
2022-08-27T08:01:15.047Z,101256.91
2022-08-27T08:04:02.830Z,101257.16
2022-08-27T08:06:50.988Z,101257.66
2022-08-27T08:09:38.717Z,101246.44
2022-08-27T08:12:26.671Z,101257.38
2022-08-27T08:15:13.947Z,101255.16
2022-08-27T08:18:01.323Z,101263.59
2022-08-27T08:20:58.203Z,101251.28
2022-08-27T08:23:47.308Z,101261.31
2022-08-27T08:26:34.386Z,101258.34
2022-08-27T08:29:22.344Z,101264.72
2022-08-27T08:32:09.361Z,101270.09
2022-08-27T08:34:56.811Z,101271.22
2022-08-27T08:37:44.961Z,101272.47
2022-08-27T08:40:36.879Z,101275.56
2022-08-27T08:43:33.237Z,101267.69
2022-08-27T08:46:46.660Z,101270.44
2022-08-27T08:49:42.982Z,101283.03
2022-08-27T08:52:33.140Z,101271.88
2022-08-27T08:55:39.886Z,101275.84
2022-08-27T08:58:47.474Z,101286.31
2022-08-27T09:01:35.398Z,101288.03
2022-08-27T09:04:24.113Z,101288.09
2022-08-27T09:07:11.373Z,101287.28
2022-08-27T09:10:20.906Z,101283.31
2022-08-27T09:13:33.613Z,101283.69
2022-08-27T09:16:24.228Z,101294.50
2022-08-27T09:19:13.187Z,101298.09
2022-08-27T09:22:10.988Z,101288.41
2022-08-27T09:25:20.909Z,101293.78
2022-08-27T09:28:32.824Z,101287.09
2022-08-27T09:31:21.392Z,101280.22
2022-08-27T09:34:08.857Z,101284.25
2022-08-27T09:37:02.745Z,101288.06
2022-08-27T09:40:13.340Z,101276.31
2022-08-27T09:43:20.745Z,101273.91
2022-08-27T09:46:21.923Z,101279.97
2022-08-27T09:49:16.620Z,101293.03
2022-08-27T09:52:04.469Z,101283.72
2022-08-27T09:54:56.940Z,101277.22
2022-08-27T09:57:44.265Z,101282.38
2022-08-27T10:00:40.137Z,101280.34
2022-08-27T10:03:32.650Z,101279.28
2022-08-27T10:06:31.594Z,101289.47
2022-08-27T10:09:35.539Z,101291.75
2022-08-27T10:12:31.444Z,101278.72
2022-08-27T10:15:18.709Z,101284.06
2022-08-27T10:18:35.005Z,101290.50
2022-08-27T10:21:29.716Z,101295.56
2022-08-27T10:24:32.386Z,101297.53
2022-08-27T10:27:38.651Z,101285.72
2022-08-27T10:30:42.993Z,101282.16
2022-08-27T10:33:32.718Z,101293.25
2022-08-27T10:36:20.257Z,101291.47
2022-08-27T10:39:16.737Z,101293.22
2022-08-27T10:42:09.818Z,101288.09
2022-08-27T10:45:31.306Z,101282.38
2022-08-27T10:48:35.542Z,101278.66
2022-08-27T10:51:31.306Z,101285.25
2022-08-27T10:54:40.363Z,101276.84
2022-08-27T10:58:10.806Z,101277.19
2022-08-27T11:01:30.107Z,101276.03
2022-08-27T11:04:26.893Z,101276.91
2022-08-27T11:07:28.441Z,101265.06
2022-08-27T11:10:26.544Z,101260.13
2022-08-27T11:13:22.062Z,101273.41
2022-08-27T11:16:26.686Z,101257.78
2022-08-27T11:19:23.461Z,101255.28
2022-08-27T11:22:34.896Z,101262.88
2022-08-27T11:25:21.907Z,101275.78
2022-08-27T11:28:11.753Z,101262.88
2022-08-27T11:31:25.022Z,101254.81
2022-08-27T11:34:21.034Z,101266.66
2022-08-27T11:37:40.448Z,101265.91
2022-08-27T11:40:54.464Z,101258.63
2022-08-27T11:43:44.988Z,101262.25
2022-08-27T11:46:45.832Z,101260.78
2022-08-27T11:49:46.001Z,101254.34
2022-08-27T11:52:42.940Z,101268.22
2022-08-27T11:55:39.088Z,101264.13
2022-08-27T11:58:30.270Z,101260.13
2022-08-27T12:01:31.796Z,101259.41
2022-08-27T12:04:31.164Z,101267.66
2022-08-27T12:07:18.121Z,101260.63
2022-08-27T12:10:27.565Z,101257.31
2022-08-27T12:13:22.921Z,101268.19
2022-08-27T12:16:18.969Z,101259.16
2022-08-27T12:19:24.329Z,101252.75
2022-08-27T12:22:59.226Z,101258.03
2022-08-27T12:26:13.415Z,101265.28
2022-08-27T12:29:27.793Z,101256.59
2022-08-27T12:32:40.869Z,101265.16
2022-08-27T12:35:50.749Z,101269.28
2022-08-27T12:38:55.945Z,101252.94
2022-08-27T12:41:48.797Z,101254.28
2022-08-27T12:44:36.072Z,101276.13
2022-08-27T12:47:24.172Z,101290.84
2022-08-27T12:50:12.498Z,101290.16
2022-08-27T12:53:07.936Z,101285.97
2022-08-27T12:55:58.033Z,101270.53
2022-08-27T12:59:26.447Z,101265.09
2022-08-27T13:02:58.434Z,101260.88
2022-08-27T13:05:49.501Z,101269.75
2022-08-27T13:08:37.958Z,101258.41
2022-08-27T13:11:32.735Z,101269.16
2022-08-27T13:14:21.246Z,101271.72
2022-08-27T13:17:14.493Z,101269.78
2022-08-27T13:20:02.096Z,101273.00
2022-08-27T13:22:51.225Z,101270.34
2022-08-27T13:25:38.274Z,101274.22
2022-08-27T13:28:28.170Z,101286.53
2022-08-27T13:31:16.880Z,101291.16
2022-08-27T13:34:06.381Z,101281.09
2022-08-27T13:37:04.254Z,101283.50
2022-08-27T13:39:56.374Z,101275.44
2022-08-27T13:42:45.247Z,101279.28
2022-08-27T13:45:32.377Z,101272.66
2022-08-27T13:48:20.449Z,101276.91
2022-08-27T13:51:13.326Z,101256.16
2022-08-27T13:54:18.296Z,101266.81
2022-08-27T13:57:10.204Z,101272.13
2022-08-27T14:00:14.958Z,101269.94
2022-08-27T14:03:02.744Z,101274.69
2022-08-27T14:05:49.950Z,101280.13
2022-08-27T14:08:37.054Z,101281.38
2022-08-27T14:11:27.392Z,101286.53
2022-08-27T14:14:17.510Z,101279.78
2022-08-27T14:17:08.854Z,101280.91
2022-08-27T14:20:01.308Z,101283.16
2022-08-27T14:22:49.819Z,101273.91
2022-08-27T14:25:36.865Z,101280.97
2022-08-27T14:28:23.965Z,101267.31
2022-08-27T14:31:12.307Z,101278.94
2022-08-27T14:33:59.537Z,101269.16
2022-08-27T14:36:46.789Z,101273.47
2022-08-27T14:39:34.493Z,101278.56
2022-08-27T14:42:22.334Z,101284.28
2022-08-27T14:45:10.739Z,101278.00
2022-08-27T14:48:02.089Z,101277.66
2022-08-27T14:50:50.047Z,101267.50
2022-08-27T14:53:37.057Z,101285.75
2022-08-27T14:56:25.463Z,101284.28
2022-08-27T14:59:12.532Z,101283.06
2022-08-27T15:02:01.781Z,101289.34
2022-08-27T15:04:48.905Z,101286.34
2022-08-27T15:07:35.959Z,101290.19
2022-08-27T15:10:23.713Z,101287.84
2022-08-27T15:13:11.645Z,101283.22
2022-08-27T15:15:59.121Z,101271.97
2022-08-27T15:18:59.320Z,101278.03
2022-08-27T15:21:49.969Z,101267.41
2022-08-27T15:24:43.217Z,101275.31
2022-08-27T15:27:37.956Z,101287.88
2022-08-27T15:30:28.823Z,101286.88
2022-08-27T15:33:16.013Z,101283.25
2022-08-27T15:36:04.156Z,101275.94
2022-08-27T15:38:52.214Z,101289.50
2022-08-27T15:42:05.087Z,101275.94
2022-08-27T15:44:51.763Z,101267.13
2022-08-27T15:47:40.038Z,101278.50
2022-08-27T15:50:28.728Z,101276.91
2022-08-27T15:53:16.084Z,101269.59
2022-08-27T15:56:04.107Z,101260.06
2022-08-27T15:58:51.539Z,101269.41
2022-08-27T16:01:38.802Z,101274.25
2022-08-27T16:04:26.437Z,101273.38
2022-08-27T16:07:13.918Z,101249.25
2022-08-27T16:10:05.551Z,101255.97
2022-08-27T16:12:52.771Z,101270.09
2022-08-27T16:15:41.198Z,101269.00
2022-08-27T16:18:32.026Z,101267.84
2022-08-27T16:21:19.813Z,101267.41
2022-08-27T16:24:11.202Z,101259.59
2022-08-27T16:26:58.134Z,101268.06
2022-08-27T16:29:45.181Z,101266.88
2022-08-27T16:32:32.528Z,101270.97
2022-08-27T16:35:20.732Z,101278.91
2022-08-27T16:38:07.966Z,101276.75
2022-08-27T16:40:55.794Z,101296.44
2022-08-27T16:43:43.649Z,101271.22
2022-08-27T16:46:31.057Z,101248.81
2022-08-27T16:49:36.713Z,101245.31
2022-08-27T16:52:24.109Z,101241.53
2022-08-27T16:55:11.945Z,101253.56
2022-08-27T16:57:59.605Z,101248.09
2022-08-27T17:00:49.834Z,101256.34
2022-08-27T17:04:06.796Z,101262.88
2022-08-27T17:06:51.741Z,101264.25
2022-08-27T17:09:38.845Z,101265.00
2022-08-27T17:12:25.886Z,101257.50
2022-08-27T17:15:14.574Z,101241.25
2022-08-27T17:18:04.054Z,101243.06
2022-08-27T17:20:52.437Z,101251.50
2022-08-27T17:23:42.131Z,101261.75
2022-08-27T17:26:30.637Z,101256.38
2022-08-27T17:29:17.649Z,101260.84
2022-08-27T17:32:08.272Z,101266.00
2022-08-27T17:34:55.338Z,101244.50
2022-08-27T17:37:42.811Z,101256.38
2022-08-27T17:40:29.989Z,101257.00
2022-08-27T17:43:17.265Z,101259.03
2022-08-27T17:46:09.389Z,101269.03
2022-08-27T17:48:56.510Z,101262.56
2022-08-27T17:51:45.850Z,101269.47
2022-08-27T17:54:42.489Z,101266.00
2022-08-27T17:57:41.327Z,101276.69
2022-08-27T18:00:28.949Z,101275.16
2022-08-27T18:03:19.090Z,101267.16
2022-08-27T18:06:07.101Z,101255.50
2022-08-27T18:08:54.541Z,101265.66
2022-08-27T18:11:43.018Z,101271.91
2022-08-27T18:14:30.074Z,101279.34
2022-08-27T18:17:17.049Z,101279.41
2022-08-27T18:20:06.566Z,101290.69
2022-08-27T18:22:54.326Z,101281.41
2022-08-27T18:25:43.921Z,101291.63
2022-08-27T18:28:31.369Z,101295.34
2022-08-27T18:31:20.244Z,101297.47
2022-08-27T18:34:07.306Z,101296.47
2022-08-27T18:36:54.256Z,101304.81
2022-08-27T18:39:42.025Z,101315.88
2022-08-27T18:42:29.365Z,101323.22
2022-08-27T18:45:23.012Z,101314.25
2022-08-27T18:48:16.587Z,101320.03
2022-08-27T18:51:06.453Z,101318.00
2022-08-27T18:53:53.512Z,101321.97
2022-08-27T18:56:40.717Z,101339.66
2022-08-27T18:59:28.162Z,101339.22
2022-08-27T19:02:20.169Z,101328.03
2022-08-27T19:05:09.134Z,101334.53
2022-08-27T19:07:58.410Z,101341.91
2022-08-27T19:10:45.705Z,101338.31
2022-08-27T19:13:32.782Z,101341.97
2022-08-27T19:16:25.027Z,101333.13
2022-08-27T19:19:14.430Z,101346.25
2022-08-27T19:22:07.056Z,101346.28
2022-08-27T19:24:54.240Z,101334.56
2022-08-27T19:27:42.794Z,101341.56
2022-08-27T19:30:29.897Z,101337.97
2022-08-27T19:33:18.749Z,101349.72
2022-08-27T19:36:09.655Z,101348.94
2022-08-27T19:38:59.909Z,101347.78
2022-08-27T19:41:46.955Z,101353.47
2022-08-27T19:44:33.983Z,101349.47
2022-08-27T19:47:25.811Z,101357.13
2022-08-27T19:50:15.221Z,101351.56
2022-08-27T19:53:02.245Z,101352.34
2022-08-27T19:55:49.659Z,101349.97
2022-08-27T19:58:36.837Z,101353.22
2022-08-27T20:01:23.927Z,101354.44
2022-08-27T20:04:11.031Z,101351.19
2022-08-27T20:06:58.879Z,101354.84
2022-08-27T20:09:45.858Z,101355.25
2022-08-27T20:12:35.094Z,101350.00
2022-08-27T20:15:23.562Z,101356.06
2022-08-27T20:18:13.122Z,101347.19
2022-08-27T20:21:00.210Z,101362.91
2022-08-27T20:23:53.898Z,101365.31
2022-08-27T20:26:41.250Z,101365.28
2022-08-27T20:29:32.451Z,101377.34
2022-08-27T20:32:20.705Z,101384.56
2022-08-27T20:35:08.891Z,101388.56
2022-08-27T20:37:55.974Z,101388.88
2022-08-27T20:40:43.143Z,101395.72
2022-08-27T20:43:31.916Z,101389.25
2022-08-27T20:46:24.089Z,101389.63
2022-08-27T20:49:11.177Z,101388.31
2022-08-27T20:52:03.313Z,101383.47
2022-08-27T20:54:51.662Z,101389.47
2022-08-27T20:58:01.142Z,101392.25
2022-08-27T21:00:53.565Z,101379.69
2022-08-27T21:03:41.095Z,101393.31
2022-08-27T21:06:30.949Z,101393.69
2022-08-27T21:09:21.201Z,101388.44
2022-08-27T21:12:08.503Z,101391.94
2022-08-27T21:14:57.843Z,101392.72
2022-08-27T21:17:45.245Z,101392.72
2022-08-27T21:20:32.664Z,101388.66
2022-08-27T21:23:20.164Z,101393.44
2022-08-27T21:26:11.617Z,101399.06
2022-08-27T21:28:58.607Z,101390.53
2022-08-27T21:31:47.897Z,101397.47
2022-08-27T21:34:34.959Z,101393.34
2022-08-27T21:37:22.911Z,101390.06
2022-08-27T21:40:11.186Z,101397.28
2022-08-27T21:42:59.142Z,101394.88
2022-08-27T21:45:46.757Z,101396.09
2022-08-27T21:48:34.021Z,101404.47
2022-08-27T21:51:24.590Z,101400.06
2022-08-27T21:54:11.778Z,101404.75
2022-08-27T21:56:58.905Z,101406.31
2022-08-27T21:59:48.235Z,101404.28
2022-08-27T22:02:40.263Z,101408.25
2022-08-27T22:05:27.756Z,101407.00
2022-08-27T22:08:16.982Z,101411.38
2022-08-27T22:11:04.166Z,101397.66
2022-08-27T22:13:52.542Z,101410.47
2022-08-27T22:16:39.622Z,101399.63
2022-08-27T22:19:26.641Z,101408.84
2022-08-27T22:22:14.027Z,101409.16
2022-08-27T22:25:01.252Z,101418.38
2022-08-27T22:27:48.341Z,101413.47
2022-08-27T22:30:35.546Z,101413.44
2022-08-27T22:33:22.673Z,101417.00
2022-08-27T22:36:10.334Z,101419.50
2022-08-27T22:39:03.447Z,101419.78
2022-08-27T22:41:51.562Z,101417.34
2022-08-27T22:44:41.110Z,101416.41
2022-08-27T22:47:28.192Z,101418.84
2022-08-27T22:50:15.941Z,101421.97
2022-08-27T22:53:02.930Z,101420.69
2022-08-27T22:55:50.505Z,101421.94
2022-08-27T22:58:37.498Z,101424.25
2022-08-27T23:01:24.825Z,101414.53
2022-08-27T23:04:12.017Z,101415.31
2022-08-27T23:07:01.962Z,101412.03
2022-08-27T23:09:48.913Z,101417.59
2022-08-27T23:12:37.792Z,101422.06
2022-08-27T23:15:28.532Z,101422.34
2022-08-27T23:18:16.649Z,101412.63
2022-08-27T23:21:06.083Z,101416.31
2022-08-27T23:23:53.226Z,101411.75
2022-08-27T23:26:59.014Z,101423.75
2022-08-27T23:29:47.145Z,101418.88
2022-08-27T23:32:34.968Z,101413.28
2022-08-27T23:35:23.490Z,101417.59
2022-08-27T23:38:10.988Z,101415.59
2022-08-27T23:40:58.321Z,101421.16
2022-08-27T23:43:47.549Z,101409.94
2022-08-27T23:46:34.536Z,101413.94
2022-08-27T23:49:21.746Z,101413.13
2022-08-27T23:52:09.722Z,101410.69
2022-08-27T23:54:56.798Z,101407.00
2022-08-27T23:57:43.858Z,101406.56
